sensor_id;sensor_type;location;lat;lon;timestamp;pressure;altitude;pressure_sealevel;temperature;humidity
65832;BME280;52593;42.648;23.332;2023-05-12T00:02:23;94781.09;;;8.31;77.21
65832;BME280;52593;42.648;23.332;2023-05-12T00:04:48;94778.28;;;8.25;77.13
65832;BME280;52593;42.648;23.332;2023-05-12T00:07:14;94781.75;;;8.25;77.48
65832;BME280;52593;42.648;23.332;2023-05-12T00:09:39;94781.75;;;8.25;77.62
65832;BME280;52593;42.648;23.332;2023-05-12T00:12:08;94774.28;;;8.29;77.15
65832;BME280;52593;42.648;23.332;2023-05-12T00:14:35;94773.94;;;8.24;77.36
65832;BME280;52593;42.648;23.332;2023-05-12T00:17:02;94777.09;;;8.19;77.53
65832;BME280;52593;42.648;23.332;2023-05-12T00:19:28;94776.44;;;8.17;77.71
65832;BME280;52593;42.648;23.332;2023-05-12T00:21:53;94773.94;;;8.15;77.74
65832;BME280;52593;42.648;23.332;2023-05-12T00:24:18;94780.41;;;8.13;77.55
65832;BME280;52593;42.648;23.332;2023-05-12T00:26:44;94776.25;;;8.10;77.94
65832;BME280;52593;42.648;23.332;2023-05-12T00:29:09;94778.88;;;8.02;78.58
65832;BME280;52593;42.648;23.332;2023-05-12T00:31:35;94778.56;;;8.05;78.57
65832;BME280;52593;42.648;23.332;2023-05-12T00:34:00;94786.91;;;8.10;79.17
65832;BME280;52593;42.648;23.332;2023-05-12T00:36:26;94784.53;;;7.99;80.04
65832;BME280;52593;42.648;23.332;2023-05-12T00:38:52;94780.53;;;7.95;80.24
65832;BME280;52593;42.648;23.332;2023-05-12T00:41:18;94780.88;;;7.92;81.80
65832;BME280;52593;42.648;23.332;2023-05-12T00:43:44;94788.16;;;7.81;82.81
65832;BME280;52593;42.648;23.332;2023-05-12T00:46:09;94793.78;;;7.78;82.95
65832;BME280;52593;42.648;23.332;2023-05-12T00:48:35;94794.44;;;7.72;83.69
65832;BME280;52593;42.648;23.332;2023-05-12T00:51:02;94798.25;;;7.70;84.37
65832;BME280;52593;42.648;23.332;2023-05-12T00:53:30;94795.72;;;7.60;84.41
65832;BME280;52593;42.648;23.332;2023-05-12T00:55:56;94794.34;;;7.56;85.28
65832;BME280;52593;42.648;23.332;2023-05-12T00:58:22;94793.00;;;7.52;86.69
65832;BME280;52593;42.648;23.332;2023-05-12T01:00:48;94797.81;;;7.48;86.33
65832;BME280;52593;42.648;23.332;2023-05-12T01:03:13;94800.44;;;7.40;87.21
65832;BME280;52593;42.648;23.332;2023-05-12T01:05:47;94799.91;;;7.36;87.50
65832;BME280;52593;42.648;23.332;2023-05-12T01:08:13;94793.34;;;7.22;88.05
65832;BME280;52593;42.648;23.332;2023-05-12T01:10:43;94795.63;;;7.17;89.40
65832;BME280;52593;42.648;23.332;2023-05-12T01:13:09;94803.31;;;7.20;89.60
65832;BME280;52593;42.648;23.332;2023-05-12T01:15:35;94798.38;;;7.07;90.58
65832;BME280;52593;42.648;23.332;2023-05-12T01:18:03;94796.59;;;7.08;90.68
65832;BME280;52593;42.648;23.332;2023-05-12T01:20:30;94802.84;;;6.99;91.29
65832;BME280;52593;42.648;23.332;2023-05-12T01:22:58;94800.50;;;6.95;91.35
65832;BME280;52593;42.648;23.332;2023-05-12T01:25:23;94802.25;;;6.87;92.13
65832;BME280;52593;42.648;23.332;2023-05-12T01:27:51;94804.38;;;6.83;92.30
65832;BME280;52593;42.648;23.332;2023-05-12T01:30:18;94804.91;;;6.87;92.33
65832;BME280;52593;42.648;23.332;2023-05-12T01:32:44;94806.19;;;6.83;92.57
65832;BME280;52593;42.648;23.332;2023-05-12T01:35:09;94800.88;;;6.83;92.80
65832;BME280;52593;42.648;23.332;2023-05-12T01:37:35;94805.66;;;6.79;92.96
65832;BME280;52593;42.648;23.332;2023-05-12T01:40:00;94800.16;;;6.72;93.39
65832;BME280;52593;42.648;23.332;2023-05-12T01:42:26;94793.09;;;6.63;93.54
65832;BME280;52593;42.648;23.332;2023-05-12T01:44:52;94793.09;;;6.63;93.99
65832;BME280;52593;42.648;23.332;2023-05-12T01:47:17;94794.75;;;6.64;94.08
65832;BME280;52593;42.648;23.332;2023-05-12T01:49:43;94796.06;;;6.60;95.04
65832;BME280;52593;42.648;23.332;2023-05-12T01:52:09;94796.22;;;6.58;95.45
65832;BME280;52593;42.648;23.332;2023-05-12T01:54:35;94788.34;;;6.57;95.70
65832;BME280;52593;42.648;23.332;2023-05-12T01:57:00;94792.31;;;6.53;96.30
65832;BME280;52593;42.648;23.332;2023-05-12T01:59:25;94790.34;;;6.55;96.05
65832;BME280;52593;42.648;23.332;2023-05-12T02:01:51;94782.31;;;6.47;95.91
65832;BME280;52593;42.648;23.332;2023-05-12T02:04:16;94791.03;;;6.39;96.54
65832;BME280;52593;42.648;23.332;2023-05-12T02:06:41;94796.22;;;6.40;96.34
65832;BME280;52593;42.648;23.332;2023-05-12T02:09:07;94795.03;;;6.43;96.61
65832;BME280;52593;42.648;23.332;2023-05-12T02:11:32;94791.50;;;6.34;96.67
65832;BME280;52593;42.648;23.332;2023-05-12T02:13:57;94796.97;;;6.33;97.01
65832;BME280;52593;42.648;23.332;2023-05-12T02:16:23;94789.97;;;6.32;96.72
65832;BME280;52593;42.648;23.332;2023-05-12T02:18:48;94793.91;;;6.28;96.79
65832;BME280;52593;42.648;23.332;2023-05-12T02:21:14;94795.59;;;6.29;97.43
65832;BME280;52593;42.648;23.332;2023-05-12T02:23:39;94797.25;;;6.30;97.65
65832;BME280;52593;42.648;23.332;2023-05-12T02:26:04;94798.75;;;6.32;97.28
65832;BME280;52593;42.648;23.332;2023-05-12T02:28:30;94795.06;;;6.25;97.43
65832;BME280;52593;42.648;23.332;2023-05-12T02:30:56;94794.50;;;6.21;98.21
65832;BME280;52593;42.648;23.332;2023-05-12T02:33:21;94792.31;;;6.17;98.56
65832;BME280;52593;42.648;23.332;2023-05-12T02:35:47;94789.13;;;6.13;98.41
65832;BME280;52593;42.648;23.332;2023-05-12T02:38:13;94792.91;;;6.11;99.38
65832;BME280;52593;42.648;23.332;2023-05-12T02:40:38;94798.31;;;6.19;99.93
65832;BME280;52593;42.648;23.332;2023-05-12T02:43:04;94792.16;;;6.18;99.68
65832;BME280;52593;42.648;23.332;2023-05-12T02:45:30;94791.94;;;6.12;99.87
65832;BME280;52593;42.648;23.332;2023-05-12T02:47:55;94790.81;;;6.14;99.90
65832;BME280;52593;42.648;23.332;2023-05-12T02:50:21;94798.22;;;6.11;99.90
65832;BME280;52593;42.648;23.332;2023-05-12T02:52:47;94793.75;;;6.11;99.97
65832;BME280;52593;42.648;23.332;2023-05-12T02:55:12;94783.59;;;6.06;100.00
65832;BME280;52593;42.648;23.332;2023-05-12T02:57:38;94792.91;;;6.11;100.00
65832;BME280;52593;42.648;23.332;2023-05-12T03:00:04;94794.59;;;6.12;100.00
65832;BME280;52593;42.648;23.332;2023-05-12T03:02:31;94791.00;;;6.03;100.00
65832;BME280;52593;42.648;23.332;2023-05-12T03:04:57;94791.72;;;5.95;100.00
65832;BME280;52593;42.648;23.332;2023-05-12T03:07:22;94785.16;;;5.89;100.00
65832;BME280;52593;42.648;23.332;2023-05-12T03:09:47;94794.97;;;5.99;100.00
65832;BME280;52593;42.648;23.332;2023-05-12T03:12:13;94788.84;;;5.88;100.00
65832;BME280;52593;42.648;23.332;2023-05-12T03:14:38;94798.31;;;5.91;100.00
65832;BME280;52593;42.648;23.332;2023-05-12T03:17:03;94785.16;;;5.89;100.00
65832;BME280;52593;42.648;23.332;2023-05-12T03:19:29;94798.75;;;5.86;100.00
65832;BME280;52593;42.648;23.332;2023-05-12T03:21:54;94808.75;;;5.75;100.00
65832;BME280;52593;42.648;23.332;2023-05-12T03:24:20;94803.81;;;5.80;100.00
65832;BME280;52593;42.648;23.332;2023-05-12T03:26:45;94808.47;;;5.78;100.00
65832;BME280;52593;42.648;23.332;2023-05-12T03:29:11;94816.44;;;5.78;100.00
65832;BME280;52593;42.648;23.332;2023-05-12T03:31:36;94815.97;;;5.82;100.00
65832;BME280;52593;42.648;23.332;2023-05-12T03:34:01;94814.22;;;5.91;100.00
65832;BME280;52593;42.648;23.332;2023-05-12T03:36:27;94819.16;;;5.86;100.00
65832;BME280;52593;42.648;23.332;2023-05-12T03:38:52;94817.03;;;5.89;100.00
65832;BME280;52593;42.648;23.332;2023-05-12T03:41:18;94815.25;;;5.90;100.00
65832;BME280;52593;42.648;23.332;2023-05-12T03:43:43;94814.97;;;5.83;100.00
65832;BME280;52593;42.648;23.332;2023-05-12T03:46:08;94814.00;;;5.84;100.00
65832;BME280;52593;42.648;23.332;2023-05-12T03:48:34;94818.63;;;5.82;100.00
65832;BME280;52593;42.648;23.332;2023-05-12T03:51:00;94816.97;;;5.81;100.00
65832;BME280;52593;42.648;23.332;2023-05-12T03:53:25;94817.69;;;5.74;100.00
65832;BME280;52593;42.648;23.332;2023-05-12T03:55:50;94815.13;;;5.82;100.00
65832;BME280;52593;42.648;23.332;2023-05-12T03:58:16;94821.00;;;5.85;100.00
65832;BME280;52593;42.648;23.332;2023-05-12T04:00:41;94824.75;;;5.93;100.00
65832;BME280;52593;42.648;23.332;2023-05-12T04:03:07;94822.09;;;5.93;100.00
65832;BME280;52593;42.648;23.332;2023-05-12T04:05:32;94818.72;;;5.90;100.00
65832;BME280;52593;42.648;23.332;2023-05-12T04:07:57;94828.38;;;5.92;100.00
65832;BME280;52593;42.648;23.332;2023-05-12T04:10:23;94827.13;;;5.86;100.00
65832;BME280;52593;42.648;23.332;2023-05-12T04:12:48;94831.03;;;5.92;100.00
65832;BME280;52593;42.648;23.332;2023-05-12T04:15:14;94830.47;;;5.98;100.00
65832;BME280;52593;42.648;23.332;2023-05-12T04:17:39;94839.66;;;6.03;100.00
65832;BME280;52593;42.648;23.332;2023-05-12T04:20:06;94838.66;;;6.04;100.00
65832;BME280;52593;42.648;23.332;2023-05-12T04:22:31;94839.38;;;6.06;100.00
65832;BME280;52593;42.648;23.332;2023-05-12T04:24:57;94836.94;;;6.13;100.00
65832;BME280;52593;42.648;23.332;2023-05-12T04:27:22;94838.47;;;6.16;100.00
65832;BME280;52593;42.648;23.332;2023-05-12T04:29:47;94827.28;;;6.12;100.00
65832;BME280;52593;42.648;23.332;2023-05-12T04:32:13;94847.13;;;6.18;100.00
65832;BME280;52593;42.648;23.332;2023-05-12T04:34:38;94837.03;;;6.21;100.00
65832;BME280;52593;42.648;23.332;2023-05-12T04:37:04;94836.88;;;6.23;100.00
65832;BME280;52593;42.648;23.332;2023-05-12T04:39:29;94835.59;;;6.27;100.00
65832;BME280;52593;42.648;23.332;2023-05-12T04:41:55;94836.97;;;6.31;100.00
65832;BME280;52593;42.648;23.332;2023-05-12T04:44:20;94832.88;;;6.37;100.00
65832;BME280;52593;42.648;23.332;2023-05-12T04:46:46;94834.09;;;6.42;99.53
65832;BME280;52593;42.648;23.332;2023-05-12T04:49:12;94838.31;;;6.35;99.56
65832;BME280;52593;42.648;23.332;2023-05-12T04:51:37;94836.38;;;6.37;99.89
65832;BME280;52593;42.648;23.332;2023-05-12T04:54:08;94832.19;;;6.35;99.60
65832;BME280;52593;42.648;23.332;2023-05-12T04:56:34;94841.91;;;6.44;99.59
65832;BME280;52593;42.648;23.332;2023-05-12T04:58:59;94839.41;;;6.42;99.56
65832;BME280;52593;42.648;23.332;2023-05-12T05:01:25;94837.97;;;6.48;99.13
65832;BME280;52593;42.648;23.332;2023-05-12T05:03:50;94841.84;;;6.54;98.37
65832;BME280;52593;42.648;23.332;2023-05-12T05:06:16;94835.78;;;6.43;98.92
65832;BME280;52593;42.648;23.332;2023-05-12T05:08:41;94842.75;;;6.45;99.19
65832;BME280;52593;42.648;23.332;2023-05-12T05:11:07;94844.34;;;6.55;98.46
65832;BME280;52593;42.648;23.332;2023-05-12T05:13:32;94838.44;;;6.62;98.28
65832;BME280;52593;42.648;23.332;2023-05-12T05:15:58;94841.47;;;6.67;98.32
65832;BME280;52593;42.648;23.332;2023-05-12T05:18:23;94844.81;;;6.69;98.24
65832;BME280;52593;42.648;23.332;2023-05-12T05:20:49;94837.75;;;6.77;98.07
65832;BME280;52593;42.648;23.332;2023-05-12T05:23:14;94843.50;;;6.91;97.36
65832;BME280;52593;42.648;23.332;2023-05-12T05:25:39;94847.97;;;6.90;96.91
65832;BME280;52593;42.648;23.332;2023-05-12T05:28:05;94849.06;;;6.79;96.95
65832;BME280;52593;42.648;23.332;2023-05-12T05:30:30;94851.66;;;6.89;97.04
65832;BME280;52593;42.648;23.332;2023-05-12T05:32:56;94851.56;;;6.99;96.84
65832;BME280;52593;42.648;23.332;2023-05-12T05:35:21;94849.78;;;7.08;95.79
65832;BME280;52593;42.648;23.332;2023-05-12T05:37:46;94852.63;;;7.06;95.20
65832;BME280;52593;42.648;23.332;2023-05-12T05:40:12;94860.28;;;7.09;95.20
65832;BME280;52593;42.648;23.332;2023-05-12T05:42:37;94854.66;;;7.12;95.15
65832;BME280;52593;42.648;23.332;2023-05-12T05:45:03;94863.00;;;7.18;95.78
65832;BME280;52593;42.648;23.332;2023-05-12T05:47:28;94858.66;;;7.17;95.06
65832;BME280;52593;42.648;23.332;2023-05-12T05:49:55;94856.00;;;7.17;94.38
65832;BME280;52593;42.648;23.332;2023-05-12T05:52:21;94860.09;;;7.29;94.50
65832;BME280;52593;42.648;23.332;2023-05-12T05:54:48;94861.75;;;7.30;93.80
65832;BME280;52593;42.648;23.332;2023-05-12T05:57:14;94859.47;;;7.35;94.04
65832;BME280;52593;42.648;23.332;2023-05-12T05:59:39;94858.94;;;7.31;93.70
65832;BME280;52593;42.648;23.332;2023-05-12T06:02:05;94858.78;;;7.33;92.59
65832;BME280;52593;42.648;23.332;2023-05-12T06:04:30;94859.94;;;7.30;92.81
65832;BME280;52593;42.648;23.332;2023-05-12T06:06:56;94860.50;;;7.42;92.38
65832;BME280;52593;42.648;23.332;2023-05-12T06:09:21;94860.81;;;7.39;91.44
65832;BME280;52593;42.648;23.332;2023-05-12T06:11:47;94855.56;;;7.47;91.69
65832;BME280;52593;42.648;23.332;2023-05-12T06:14:12;94858.38;;;7.46;91.61
65832;BME280;52593;42.648;23.332;2023-05-12T06:16:37;94865.63;;;7.62;91.73
65832;BME280;52593;42.648;23.332;2023-05-12T06:19:03;94867.00;;;7.66;90.78
65832;BME280;52593;42.648;23.332;2023-05-12T06:21:29;94878.31;;;7.68;90.69
65832;BME280;52593;42.648;23.332;2023-05-12T06:23:54;94869.84;;;7.73;89.61
65832;BME280;52593;42.648;23.332;2023-05-12T06:26:21;94870.81;;;7.72;89.72
65832;BME280;52593;42.648;23.332;2023-05-12T06:28:46;94872.19;;;7.76;89.44
65832;BME280;52593;42.648;23.332;2023-05-12T06:31:11;94873.03;;;7.76;88.01
65832;BME280;52593;42.648;23.332;2023-05-12T06:33:37;94877.34;;;7.77;88.79
65832;BME280;52593;42.648;23.332;2023-05-12T06:36:02;94877.69;;;7.74;89.00
65832;BME280;52593;42.648;23.332;2023-05-12T06:38:28;94882.69;;;7.77;88.26
65832;BME280;52593;42.648;23.332;2023-05-12T06:40:53;94878.72;;;7.81;88.39
65832;BME280;52593;42.648;23.332;2023-05-12T06:43:18;94882.13;;;7.92;88.76
65832;BME280;52593;42.648;23.332;2023-05-12T06:45:44;94894.25;;;7.94;88.59
65832;BME280;52593;42.648;23.332;2023-05-12T06:48:09;94891.59;;;7.94;88.66
65832;BME280;52593;42.648;23.332;2023-05-12T06:50:35;94887.47;;;8.00;87.87
65832;BME280;52593;42.648;23.332;2023-05-12T06:53:01;94887.13;;;7.95;87.70
65832;BME280;52593;42.648;23.332;2023-05-12T06:55:26;94885.84;;;8.07;86.99
65832;BME280;52593;42.648;23.332;2023-05-12T06:57:52;94886.34;;;8.02;86.85
65832;BME280;52593;42.648;23.332;2023-05-12T07:00:21;94882.97;;;8.00;86.91
65832;BME280;52593;42.648;23.332;2023-05-12T07:02:47;94880.16;;;8.02;87.46
65832;BME280;52593;42.648;23.332;2023-05-12T07:05:12;94885.56;;;8.18;86.26
65832;BME280;52593;42.648;23.332;2023-05-12T07:07:37;94874.00;;;8.10;85.80
65832;BME280;52593;42.648;23.332;2023-05-12T07:10:05;94879.81;;;8.05;86.43
65832;BME280;52593;42.648;23.332;2023-05-12T07:12:30;94883.03;;;8.09;85.93
65832;BME280;52593;42.648;23.332;2023-05-12T07:14:57;94883.19;;;8.07;86.79
65832;BME280;52593;42.648;23.332;2023-05-12T07:17:22;94884.50;;;8.11;85.98
65832;BME280;52593;42.648;23.332;2023-05-12T07:19:47;94890.53;;;8.13;86.14
65832;BME280;52593;42.648;23.332;2023-05-12T07:22:13;94890.31;;;8.07;86.05
65832;BME280;52593;42.648;23.332;2023-05-12T07:24:38;94892.97;;;8.41;87.10
65832;BME280;52593;42.648;23.332;2023-05-12T07:27:04;94894.44;;;8.78;86.37
65832;BME280;52593;42.648;23.332;2023-05-12T07:29:30;94891.63;;;9.13;86.07
65832;BME280;52593;42.648;23.332;2023-05-12T07:31:55;94882.72;;;8.71;82.39
65832;BME280;52593;42.648;23.332;2023-05-12T07:34:21;94890.50;;;8.48;83.45
65832;BME280;52593;42.648;23.332;2023-05-12T07:36:46;94886.38;;;8.62;82.80
65832;BME280;52593;42.648;23.332;2023-05-12T07:39:11;94888.22;;;8.61;82.74
65832;BME280;52593;42.648;23.332;2023-05-12T07:41:39;94891.06;;;8.68;82.45
65832;BME280;52593;42.648;23.332;2023-05-12T07:44:05;94889.75;;;8.64;82.47
65832;BME280;52593;42.648;23.332;2023-05-12T07:46:31;94884.72;;;8.61;82.75
65832;BME280;52593;42.648;23.332;2023-05-12T07:48:56;94884.09;;;8.75;82.03
65832;BME280;52593;42.648;23.332;2023-05-12T07:51:22;94886.59;;;8.85;82.06
65832;BME280;52593;42.648;23.332;2023-05-12T07:53:47;94887.28;;;9.03;81.97
65832;BME280;52593;42.648;23.332;2023-05-12T07:56:13;94885.78;;;9.09;80.81
65832;BME280;52593;42.648;23.332;2023-05-12T07:58:38;94883.13;;;9.25;80.31
65832;BME280;52593;42.648;23.332;2023-05-12T08:01:04;94885.44;;;9.37;79.86
65832;BME280;52593;42.648;23.332;2023-05-12T08:03:31;94885.94;;;9.57;79.18
65832;BME280;52593;42.648;23.332;2023-05-12T08:05:57;94875.91;;;9.67;77.99
65832;BME280;52593;42.648;23.332;2023-05-12T08:08:22;94874.06;;;9.59;77.66
65832;BME280;52593;42.648;23.332;2023-05-12T08:10:48;94878.88;;;9.72;76.61
65832;BME280;52593;42.648;23.332;2023-05-12T08:13:13;94871.53;;;9.82;76.74
65832;BME280;52593;42.648;23.332;2023-05-12T08:15:39;94877.81;;;10.06;76.21
65832;BME280;52593;42.648;23.332;2023-05-12T08:18:04;94881.19;;;10.00;75.66
65832;BME280;52593;42.648;23.332;2023-05-12T08:20:30;94886.69;;;9.98;75.02
65832;BME280;52593;42.648;23.332;2023-05-12T08:22:56;94879.47;;;10.07;75.46
65832;BME280;52593;42.648;23.332;2023-05-12T08:25:21;94876.31;;;10.04;75.05
65832;BME280;52593;42.648;23.332;2023-05-12T08:27:47;94879.13;;;10.18;75.04
65832;BME280;52593;42.648;23.332;2023-05-12T08:30:13;94883.91;;;10.31;74.15
65832;BME280;52593;42.648;23.332;2023-05-12T08:32:38;94888.06;;;10.42;73.84
65832;BME280;52593;42.648;23.332;2023-05-12T08:35:04;94892.91;;;10.30;73.32
65832;BME280;52593;42.648;23.332;2023-05-12T08:37:30;94884.50;;;10.02;74.79
65832;BME280;52593;42.648;23.332;2023-05-12T08:39:56;94882.50;;;10.04;74.27
65832;BME280;52593;42.648;23.332;2023-05-12T08:44:53;94884.28;;;10.12;74.51
65832;BME280;52593;42.648;23.332;2023-05-12T08:47:19;94886.63;;;10.23;73.60
65832;BME280;52593;42.648;23.332;2023-05-12T08:49:50;94887.63;;;10.22;73.56
65832;BME280;52593;42.648;23.332;2023-05-12T08:52:19;94883.78;;;10.25;73.39
65832;BME280;52593;42.648;23.332;2023-05-12T08:54:46;94887.41;;;10.40;72.73
65832;BME280;52593;42.648;23.332;2023-05-12T08:57:12;94884.56;;;10.42;72.59
65832;BME280;52593;42.648;23.332;2023-05-12T08:59:38;94885.91;;;10.29;73.05
65832;BME280;52593;42.648;23.332;2023-05-12T09:02:08;94889.09;;;10.33;72.57
65832;BME280;52593;42.648;23.332;2023-05-12T09:04:33;94887.25;;;10.33;73.06
65832;BME280;52593;42.648;23.332;2023-05-12T09:07:02;94882.88;;;10.41;72.48
65832;BME280;52593;42.648;23.332;2023-05-12T09:09:30;94881.84;;;10.50;72.00
65832;BME280;52593;42.648;23.332;2023-05-12T09:12:00;94881.09;;;10.33;72.31
65832;BME280;52593;42.648;23.332;2023-05-12T09:14:28;94881.56;;;10.37;72.42
65832;BME280;52593;42.648;23.332;2023-05-12T09:17:01;94878.72;;;10.30;72.28
65832;BME280;52593;42.648;23.332;2023-05-12T09:19:28;94876.44;;;10.18;72.85
65832;BME280;52593;42.648;23.332;2023-05-12T09:21:53;94876.38;;;10.43;73.08
65832;BME280;52593;42.648;23.332;2023-05-12T09:24:19;94874.19;;;10.30;72.32
65832;BME280;52593;42.648;23.332;2023-05-12T09:26:52;94864.19;;;10.32;72.58
65832;BME280;52593;42.648;23.332;2023-05-12T09:29:19;94872.06;;;10.34;72.76
65832;BME280;52593;42.648;23.332;2023-05-12T09:31:48;94869.88;;;10.29;72.83
65832;BME280;52593;42.648;23.332;2023-05-12T09:34:14;94866.19;;;10.39;73.09
65832;BME280;52593;42.648;23.332;2023-05-12T09:36:40;94856.16;;;10.64;72.76
65832;BME280;52593;42.648;23.332;2023-05-12T09:39:07;94855.81;;;10.67;72.24
65832;BME280;52593;42.648;23.332;2023-05-12T09:41:37;94859.94;;;10.78;71.50
65832;BME280;52593;42.648;23.332;2023-05-12T09:44:03;94863.56;;;10.85;71.33
65832;BME280;52593;42.648;23.332;2023-05-12T09:46:28;94864.75;;;10.82;71.16
65832;BME280;52593;42.648;23.332;2023-05-12T09:48:55;94864.47;;;11.00;70.34
65832;BME280;52593;42.648;23.332;2023-05-12T09:51:22;94860.97;;;11.00;69.94
65832;BME280;52593;42.648;23.332;2023-05-12T09:53:47;94871.00;;;10.98;70.23
65832;BME280;52593;42.648;23.332;2023-05-12T09:56:14;94872.44;;;11.09;69.21
65832;BME280;52593;42.648;23.332;2023-05-12T09:58:48;94859.41;;;11.29;68.55
65832;BME280;52593;42.648;23.332;2023-05-12T10:01:15;94869.16;;;11.45;68.36
65832;BME280;52593;42.648;23.332;2023-05-12T10:03:42;94865.75;;;11.51;68.08
65832;BME280;52593;42.648;23.332;2023-05-12T10:06:12;94856.44;;;11.62;68.38
65832;BME280;52593;42.648;23.332;2023-05-12T10:08:53;94852.94;;;11.61;67.10
65832;BME280;52593;42.648;23.332;2023-05-12T10:11:21;94856.44;;;11.62;67.62
65832;BME280;52593;42.648;23.332;2023-05-12T10:13:47;94853.03;;;11.83;66.35
65832;BME280;52593;42.648;23.332;2023-05-12T10:16:13;94849.56;;;11.97;66.12
65832;BME280;52593;42.648;23.332;2023-05-12T10:18:41;94855.66;;;12.06;66.16
65832;BME280;52593;42.648;23.332;2023-05-12T10:21:07;94847.91;;;11.96;66.33
65832;BME280;52593;42.648;23.332;2023-05-12T10:23:34;94844.50;;;12.02;64.74
65832;BME280;52593;42.648;23.332;2023-05-12T10:26:01;94852.63;;;12.09;64.38
65832;BME280;52593;42.648;23.332;2023-05-12T10:28:27;94846.78;;;12.20;64.89
65832;BME280;52593;42.648;23.332;2023-05-12T10:30:53;94847.25;;;12.24;63.32
65832;BME280;52593;42.648;23.332;2023-05-12T10:33:20;94845.75;;;12.21;64.13
65832;BME280;52593;42.648;23.332;2023-05-12T10:35:46;94837.03;;;12.34;63.48
65832;BME280;52593;42.648;23.332;2023-05-12T10:38:13;94838.63;;;12.28;63.75
65832;BME280;52593;42.648;23.332;2023-05-12T10:43:26;94832.56;;;12.93;62.17
65832;BME280;52593;42.648;23.332;2023-05-12T10:46:25;94833.25;;;13.01;61.32
65832;BME280;52593;42.648;23.332;2023-05-12T10:49:09;94829.53;;;13.02;61.09
65832;BME280;52593;42.648;23.332;2023-05-12T10:54:06;94818.94;;;13.16;60.29
65832;BME280;52593;42.648;23.332;2023-05-12T10:59:22;94819.25;;;13.49;59.89
65832;BME280;52593;42.648;23.332;2023-05-12T11:02:01;94825.88;;;13.53;59.63
65832;BME280;52593;42.648;23.332;2023-05-12T11:04:53;94827.34;;;13.56;59.53
65832;BME280;52593;42.648;23.332;2023-05-12T11:07:38;94833.34;;;13.58;59.46
65832;BME280;52593;42.648;23.332;2023-05-12T11:10:04;94827.75;;;13.53;58.58
65832;BME280;52593;42.648;23.332;2023-05-12T11:12:32;94836.50;;;13.62;58.77
65832;BME280;52593;42.648;23.332;2023-05-12T11:15:02;94832.31;;;13.52;58.31
65832;BME280;52593;42.648;23.332;2023-05-12T11:17:27;94838.44;;;13.46;58.60
65832;BME280;52593;42.648;23.332;2023-05-12T11:19:53;94837.13;;;13.35;59.28
65832;BME280;52593;42.648;23.332;2023-05-12T11:22:20;94842.59;;;13.27;59.30
65832;BME280;52593;42.648;23.332;2023-05-12T11:24:47;94839.66;;;13.22;60.01
65832;BME280;52593;42.648;23.332;2023-05-12T11:27:14;94835.06;;;13.16;59.47
65832;BME280;52593;42.648;23.332;2023-05-12T11:29:40;94847.63;;;12.94;60.15
65832;BME280;52593;42.648;23.332;2023-05-12T11:32:10;94839.13;;;12.90;61.26
65832;BME280;52593;42.648;23.332;2023-05-12T11:34:38;94847.38;;;12.89;61.28
65832;BME280;52593;42.648;23.332;2023-05-12T11:37:04;94845.00;;;12.79;60.92
65832;BME280;52593;42.648;23.332;2023-05-12T11:39:33;94850.28;;;12.72;61.88
65832;BME280;52593;42.648;23.332;2023-05-12T11:42:09;94844.25;;;12.85;62.28
65832;BME280;52593;42.648;23.332;2023-05-12T11:44:35;94845.91;;;12.86;61.91
65832;BME280;52593;42.648;23.332;2023-05-12T11:49:50;94842.53;;;12.77;60.43
65832;BME280;52593;42.648;23.332;2023-05-12T11:52:18;94833.38;;;12.72;60.63
65832;BME280;52593;42.648;23.332;2023-05-12T11:54:59;94832.44;;;12.64;59.63
65832;BME280;52593;42.648;23.332;2023-05-12T11:57:29;94826.25;;;12.64;59.20
65832;BME280;52593;42.648;23.332;2023-05-12T12:00:06;94839.72;;;12.85;59.84
65832;BME280;52593;42.648;23.332;2023-05-12T12:02:32;94849.50;;;12.93;59.90
65832;BME280;52593;42.648;23.332;2023-05-12T12:04:58;94850.50;;;12.92;59.76
65832;BME280;52593;42.648;23.332;2023-05-12T12:07:30;94844.50;;;13.12;58.22
65832;BME280;52593;42.648;23.332;2023-05-12T12:09:56;94841.25;;;13.16;57.56
65832;BME280;52593;42.648;23.332;2023-05-12T12:12:22;94843.25;;;13.29;57.19
65832;BME280;52593;42.648;23.332;2023-05-12T12:14:47;94835.06;;;13.37;57.85
65832;BME280;52593;42.648;23.332;2023-05-12T12:17:12;94841.84;;;13.33;56.46
65832;BME280;52593;42.648;23.332;2023-05-12T12:19:38;94845.19;;;13.35;57.12
65832;BME280;52593;42.648;23.332;2023-05-12T12:22:03;94846.75;;;13.51;55.88
65832;BME280;52593;42.648;23.332;2023-05-12T12:24:29;94840.63;;;13.36;55.46
65832;BME280;52593;42.648;23.332;2023-05-12T12:26:55;94838.69;;;13.30;56.11
65832;BME280;52593;42.648;23.332;2023-05-12T12:29:20;94842.19;;;13.30;56.84
65832;BME280;52593;42.648;23.332;2023-05-12T12:31:48;94840.63;;;13.36;56.52
65832;BME280;52593;42.648;23.332;2023-05-12T12:34:13;94842.78;;;13.47;56.47
65832;BME280;52593;42.648;23.332;2023-05-12T12:36:38;94847.34;;;13.25;55.57
65832;BME280;52593;42.648;23.332;2023-05-12T12:39:05;94835.09;;;13.23;55.09
65832;BME280;52593;42.648;23.332;2023-05-12T12:41:31;94836.63;;;13.32;56.45
65832;BME280;52593;42.648;23.332;2023-05-12T12:43:56;94839.47;;;13.24;56.08
65832;BME280;52593;42.648;23.332;2023-05-12T12:46:22;94842.31;;;13.37;55.41
65832;BME280;52593;42.648;23.332;2023-05-12T12:48:47;94838.19;;;13.41;55.35
65832;BME280;52593;42.648;23.332;2023-05-12T12:51:13;94845.47;;;13.26;54.66
65832;BME280;52593;42.648;23.332;2023-05-12T12:53:39;94831.78;;;13.20;55.29
65832;BME280;52593;42.648;23.332;2023-05-12T12:56:04;94837.53;;;12.96;56.16
65832;BME280;52593;42.648;23.332;2023-05-12T12:58:30;94836.59;;;13.03;56.30
65832;BME280;52593;42.648;23.332;2023-05-12T13:00:56;94830.16;;;13.05;54.83
65832;BME280;52593;42.648;23.332;2023-05-12T13:03:22;94829.88;;;13.14;54.56
65832;BME280;52593;42.648;23.332;2023-05-12T13:05:48;94833.84;;;13.18;53.91